createdAt,value
2018-09-19T04:33:41.282Z,3.70
2018-09-19T04:36:09.250Z,3.40
2018-09-19T04:38:37.265Z,3.33
2018-09-19T04:41:05.315Z,3.97
2018-09-19T04:43:33.346Z,3.07
2018-09-19T04:46:01.321Z,3.13
2018-09-19T04:48:29.270Z,3.40
2018-09-19T04:50:57.255Z,3.50
2018-09-19T04:53:25.270Z,2.90
2018-09-19T04:55:53.222Z,3.33
2018-09-19T04:58:21.212Z,3.50
2018-09-19T05:00:49.193Z,3.53
2018-09-19T05:03:17.159Z,4.30
2018-09-19T05:05:45.157Z,3.90
2018-09-19T05:08:13.099Z,3.07
2018-09-19T05:10:41.093Z,3.70
2018-09-19T05:13:09.114Z,3.40
2018-09-19T05:15:37.107Z,4.10
2018-09-19T05:18:05.165Z,3.53
2018-09-19T05:20:33.196Z,3.60
2018-09-19T05:23:01.508Z,3.77
2018-09-19T05:25:29.516Z,3.77
2018-09-19T05:27:57.528Z,3.60
2018-09-19T05:30:25.544Z,3.27
2018-09-19T05:32:53.879Z,3.60
2018-09-19T05:35:22.105Z,3.80
2018-09-19T05:37:50.064Z,3.10
2018-09-19T05:40:18.104Z,3.63
2018-09-19T05:42:46.339Z,3.90
2018-09-19T05:45:14.330Z,3.30
2018-09-19T05:47:42.659Z,3.67
2018-09-19T05:50:10.707Z,3.67
2018-09-19T05:52:38.704Z,3.73
2018-09-19T05:55:06.735Z,3.63
2018-09-19T05:57:34.716Z,3.50
2018-09-19T06:00:02.747Z,3.60
2018-09-19T06:02:30.741Z,3.73
2018-09-19T06:04:58.778Z,3.87
2018-09-19T06:07:26.697Z,3.53
2018-09-19T06:09:54.673Z,3.47
2018-09-19T06:12:22.680Z,3.80
2018-09-19T06:14:50.666Z,3.87
2018-09-19T06:17:18.644Z,4.53
2018-09-19T06:19:46.620Z,3.57
2018-09-19T06:22:14.627Z,3.67
2018-09-19T06:24:42.654Z,3.97
2018-09-19T06:27:10.613Z,3.90
2018-09-19T06:29:38.590Z,3.17
2018-09-19T06:32:07.029Z,2.83
2018-09-19T06:34:35.036Z,3.50
2018-09-19T06:37:03.064Z,3.93
2018-09-19T06:39:31.080Z,3.73
2018-09-19T06:41:59.133Z,3.53
2018-09-19T06:44:27.549Z,3.73
2018-09-19T06:46:55.635Z,3.40
2018-09-19T06:49:23.609Z,3.43
2018-09-19T06:51:51.649Z,3.43
2018-09-19T06:54:19.646Z,2.90
2018-09-19T06:56:47.681Z,3.10
2018-09-19T06:59:15.688Z,3.90
2018-09-19T07:01:43.690Z,3.53
2018-09-19T07:04:11.797Z,3.70
2018-09-19T07:06:39.815Z,3.20
2018-09-19T07:09:08.380Z,3.10
2018-09-19T07:11:36.378Z,3.40
2018-09-19T07:14:04.572Z,3.70
2018-09-19T07:16:32.890Z,3.30
2018-09-19T07:19:00.930Z,3.57
2018-09-19T07:21:28.913Z,2.80
2018-09-19T07:23:56.962Z,3.30
2018-09-19T07:26:24.922Z,2.97
2018-09-19T07:28:52.897Z,3.33
2018-09-19T07:31:21.225Z,3.30
2018-09-19T07:33:49.263Z,3.60
2018-09-19T07:36:17.227Z,3.77
2018-09-19T07:38:45.284Z,4.03
2018-09-19T07:41:13.667Z,3.60
2018-09-19T07:43:41.836Z,3.30
2018-09-19T07:46:09.804Z,3.40
2018-09-19T07:48:37.801Z,3.47
2018-09-19T07:51:05.801Z,2.70
2018-09-19T07:53:34.739Z,2.87
2018-09-19T07:56:03.186Z,3.17
2018-09-19T07:58:31.740Z,3.00
2018-09-19T08:00:59.902Z,3.20
2018-09-19T08:03:27.848Z,3.97
2018-09-19T08:05:55.863Z,3.90
2018-09-19T08:08:23.881Z,4.10
2018-09-19T08:10:52.301Z,3.60
2018-09-19T08:13:20.246Z,4.33
2018-09-19T08:15:48.245Z,4.23
2018-09-19T08:18:16.202Z,4.20
2018-09-19T08:20:44.175Z,3.70
2018-09-19T08:23:12.153Z,3.87
2018-09-19T08:25:40.129Z,3.73
2018-09-19T08:28:08.142Z,4.27
2018-09-19T08:30:36.185Z,3.80
2018-09-19T08:33:04.182Z,3.07
2018-09-19T08:35:32.203Z,3.30
2018-09-19T08:38:00.162Z,3.83
2018-09-19T08:40:28.159Z,3.70
2018-09-19T08:42:56.143Z,3.27
2018-09-19T08:45:24.176Z,3.50
2018-09-19T08:47:52.122Z,3.53
2018-09-19T08:50:20.105Z,4.47
2018-09-19T08:52:48.261Z,3.63
2018-09-19T08:55:16.275Z,4.03
2018-09-19T08:57:44.279Z,3.73
2018-09-19T09:00:12.263Z,4.20
2018-09-19T09:02:40.320Z,3.70
2018-09-19T09:05:08.398Z,4.60
2018-09-19T09:07:36.424Z,4.27
2018-09-19T09:10:04.459Z,4.13
2018-09-19T09:12:32.658Z,4.40
2018-09-19T09:15:00.611Z,4.70
2018-09-19T09:17:28.581Z,5.13
2018-09-19T09:19:56.828Z,5.07
2018-09-19T09:22:24.815Z,4.87
2018-09-19T09:24:52.826Z,5.23
2018-09-19T09:27:20.857Z,6.53
2018-09-19T09:29:48.832Z,4.93
2018-09-19T09:34:44.112Z,5.17
2018-09-19T09:37:12.075Z,5.50
2018-09-19T09:39:40.010Z,4.90
2018-09-19T09:42:08.012Z,5.47
2018-09-19T09:44:35.976Z,4.63
2018-09-19T09:47:03.981Z,5.53
2018-09-19T09:49:31.950Z,5.00
2018-09-19T09:51:59.945Z,5.20
2018-09-19T09:54:28.299Z,5.77
2018-09-19T09:56:56.333Z,6.63
2018-09-19T09:59:24.364Z,5.20
2018-09-19T10:01:52.368Z,5.57
2018-09-19T10:04:20.340Z,6.23
2018-09-19T10:06:48.351Z,5.20
2018-09-19T10:09:16.325Z,5.10
2018-09-19T10:11:44.351Z,5.37
2018-09-19T10:14:12.357Z,5.70
2018-09-19T10:16:40.368Z,5.33
2018-09-19T10:19:08.340Z,5.50
2018-09-19T10:21:36.329Z,5.77
2018-09-19T10:24:04.278Z,5.97
2018-09-19T10:26:32.282Z,4.50
2018-09-19T10:29:00.250Z,6.30
2018-09-19T10:31:28.226Z,5.40
2018-09-19T10:33:56.230Z,5.93
2018-09-19T10:36:24.188Z,6.10
2018-09-19T10:38:52.194Z,5.90
2018-09-19T10:41:20.154Z,6.30
2018-09-19T10:43:48.111Z,5.90
2018-09-19T10:46:16.080Z,6.30
2018-09-19T10:48:44.060Z,5.77
2018-09-19T10:51:12.065Z,6.67
2018-09-19T10:53:40.036Z,6.70
2018-09-19T10:56:08.041Z,6.87
2018-09-19T10:58:36.053Z,6.33
2018-09-19T11:01:04.066Z,6.70
2018-09-19T11:03:32.021Z,6.33
2018-09-19T11:05:59.980Z,6.70
2018-09-19T11:08:27.967Z,6.03
2018-09-19T11:10:55.910Z,6.27
2018-09-19T11:13:23.880Z,5.33
2018-09-19T11:15:51.845Z,5.97
2018-09-19T11:18:19.837Z,5.53
2018-09-19T11:20:47.782Z,5.97
2018-09-19T11:23:15.732Z,6.13
2018-09-19T11:25:43.732Z,5.90
2018-09-19T11:28:11.685Z,6.00
2018-09-19T11:30:39.708Z,5.60
2018-09-19T11:33:07.720Z,6.00
2018-09-19T11:35:35.711Z,6.43
2018-09-19T11:38:04.241Z,6.50
2018-09-19T11:40:32.183Z,6.10
2018-09-19T11:43:00.179Z,5.17
2018-09-19T11:45:28.228Z,6.10
2018-09-19T11:47:56.214Z,5.90
2018-09-19T11:50:24.147Z,6.13
2018-09-19T11:52:52.401Z,5.57
2018-09-19T11:55:20.389Z,5.33
2018-09-19T11:57:48.380Z,5.73
2018-09-19T12:00:16.367Z,5.03
2018-09-19T12:02:44.367Z,5.70
2018-09-19T12:05:12.344Z,5.40
2018-09-19T12:07:40.364Z,5.83
2018-09-19T12:10:08.322Z,5.80
2018-09-19T12:12:36.435Z,5.53
2018-09-19T12:15:04.547Z,4.90
2018-09-19T12:17:32.518Z,5.70
2018-09-19T12:20:00.556Z,6.00
2018-09-19T12:22:28.542Z,5.80
2018-09-19T12:24:56.561Z,6.60
2018-09-19T12:27:24.515Z,6.70
2018-09-19T12:29:52.524Z,6.60
2018-09-19T12:32:20.510Z,8.00
2018-09-19T12:34:48.462Z,7.40
2018-09-19T12:37:16.448Z,7.60
2018-09-19T12:39:44.461Z,7.30
2018-09-19T12:42:12.421Z,7.20
2018-09-19T12:44:40.432Z,7.63
2018-09-19T12:47:08.423Z,6.90
2018-09-19T12:49:36.403Z,7.47
2018-09-19T12:52:04.383Z,7.37
2018-09-19T12:54:32.357Z,7.03
2018-09-19T12:57:00.349Z,6.70
2018-09-19T12:59:28.325Z,7.17
2018-09-19T13:01:56.325Z,7.37
2018-09-19T13:04:26.400Z,7.30
2018-09-19T13:06:54.660Z,6.83
2018-09-19T13:09:22.614Z,6.90
2018-09-19T13:11:50.585Z,6.10
2018-09-19T13:14:18.581Z,7.00
2018-09-19T13:16:47.429Z,7.00
2018-09-19T13:19:15.402Z,7.00
2018-09-19T13:21:43.384Z,6.97
2018-09-19T13:24:11.348Z,6.40
2018-09-19T13:26:39.364Z,6.87
2018-09-19T13:29:07.332Z,6.67
2018-09-19T13:31:35.316Z,6.57
2018-09-19T13:34:03.394Z,7.57
2018-09-19T13:36:31.365Z,7.10
2018-09-19T13:38:59.332Z,6.30
2018-09-19T13:41:27.290Z,6.83
2018-09-19T13:43:55.265Z,7.47
2018-09-19T13:46:23.289Z,6.50
2018-09-19T13:48:55.935Z,6.83
2018-09-19T13:51:24.419Z,7.60
2018-09-19T13:53:52.498Z,7.37
2018-09-19T13:56:20.950Z,6.93
2018-09-19T13:58:48.941Z,6.40
2018-09-19T14:01:16.954Z,7.93
2018-09-19T14:03:44.937Z,7.30
2018-09-19T14:06:13.005Z,7.33
2018-09-19T14:08:41.048Z,7.57
2018-09-19T14:11:09.037Z,6.67
2018-09-19T14:13:37.028Z,6.50
2018-09-19T14:16:05.390Z,6.70
2018-09-19T14:18:33.361Z,6.67
2018-09-19T14:21:01.358Z,6.87
2018-09-19T14:23:29.349Z,7.70
2018-09-19T14:25:57.324Z,7.40
2018-09-19T14:28:25.324Z,7.80
2018-09-19T14:30:53.275Z,6.70
2018-09-19T14:33:21.255Z,7.20
2018-09-19T14:35:49.335Z,6.90
2018-09-19T14:38:17.222Z,7.23
2018-09-19T14:40:45.192Z,7.73
2018-09-19T14:43:13.178Z,7.43
2018-09-19T14:45:41.160Z,7.07
2018-09-19T14:48:09.130Z,6.90
2018-09-19T14:50:37.131Z,7.53
2018-09-19T14:53:05.165Z,6.90
2018-09-19T14:55:33.140Z,7.30
2018-09-19T14:58:01.162Z,7.80
2018-09-19T15:00:29.178Z,7.27
2018-09-19T15:02:57.173Z,6.93
2018-09-19T15:05:25.157Z,7.27
2018-09-19T15:07:53.180Z,7.00
2018-09-19T15:10:21.121Z,7.13
2018-09-19T15:12:49.109Z,6.50
2018-09-19T15:15:17.261Z,6.90
2018-09-19T15:17:45.257Z,7.30
2018-09-19T15:20:13.286Z,7.43
2018-09-19T15:22:41.281Z,6.90
2018-09-19T15:25:09.249Z,7.30
2018-09-19T15:27:37.232Z,8.80
2018-09-19T15:30:05.367Z,7.57
2018-09-19T15:32:33.348Z,8.10
2018-09-19T15:35:01.318Z,7.90
2018-09-19T15:37:29.300Z,7.23
2018-09-19T15:39:57.274Z,7.80
2018-09-19T15:42:25.343Z,8.00
2018-09-19T15:44:53.308Z,8.20
2018-09-19T15:47:21.291Z,7.40
2018-09-19T15:49:49.299Z,8.10
2018-09-19T15:52:17.298Z,7.80
2018-09-19T15:54:45.319Z,7.30
2018-09-19T15:57:13.370Z,7.20
2018-09-19T15:59:41.324Z,7.80
2018-09-19T16:02:09.543Z,7.47
2018-09-19T16:04:37.513Z,8.17
2018-09-19T16:07:05.478Z,7.93
2018-09-19T16:09:33.466Z,6.90
2018-09-19T16:12:01.426Z,8.03
2018-09-19T16:14:29.428Z,8.60
2018-09-19T16:16:57.404Z,8.10
2018-09-19T16:19:25.372Z,8.00
2018-09-19T16:21:53.350Z,7.63
2018-09-19T16:24:21.340Z,8.30
2018-09-19T16:26:49.376Z,8.00
2018-09-19T16:29:17.386Z,7.53
2018-09-19T16:31:45.443Z,7.83
2018-09-19T16:34:13.441Z,7.63
2018-09-19T16:36:41.383Z,8.13
2018-09-19T16:39:10.839Z,9.30
2018-09-19T16:41:38.851Z,8.60
2018-09-19T16:44:06.990Z,8.07
2018-09-19T16:46:35.867Z,7.70
2018-09-19T16:49:04.227Z,7.10
2018-09-19T16:51:32.491Z,8.03
2018-09-19T16:54:01.205Z,8.13
2018-09-19T16:56:29.331Z,8.40
2018-09-19T17:01:45.634Z,8.83
2018-09-19T17:04:13.619Z,7.93
2018-09-19T17:06:41.631Z,9.53
2018-09-19T17:09:09.637Z,8.73
2018-09-19T17:11:38.401Z,7.97
2018-09-19T17:14:06.398Z,9.00
2018-09-19T17:16:34.356Z,8.90
2018-09-19T17:19:02.324Z,8.87
2018-09-19T17:21:30.316Z,9.03
2018-09-19T17:23:58.358Z,8.90
2018-09-19T17:26:26.308Z,8.77
2018-09-19T17:28:54.295Z,9.17
2018-09-19T17:31:22.273Z,9.33
2018-09-19T17:33:50.452Z,8.67
2018-09-19T17:36:18.400Z,9.70
2018-09-19T17:38:46.397Z,10.33
2018-09-19T17:41:14.396Z,9.93
2018-09-19T17:43:42.385Z,9.00
2018-09-19T17:46:10.381Z,8.83
2018-09-19T17:48:38.364Z,9.07
2018-09-19T17:53:52.921Z,9.20
2018-09-19T17:56:21.303Z,9.90
2018-09-19T17:58:49.350Z,9.77
2018-09-19T18:01:17.333Z,9.43
2018-09-19T18:03:45.337Z,9.10
2018-09-19T18:06:13.831Z,9.57
2018-09-19T18:08:41.840Z,9.57
2018-09-19T18:11:09.802Z,10.03
2018-09-19T18:13:37.765Z,10.87
2018-09-19T18:16:05.736Z,10.70
2018-09-19T18:18:33.716Z,10.77
2018-09-19T18:21:01.693Z,9.30
2018-09-19T18:23:29.729Z,10.23
2018-09-19T18:25:57.731Z,10.60
2018-09-19T18:28:25.757Z,10.30
2018-09-19T18:30:53.758Z,10.63
2018-09-19T18:33:21.765Z,11.30
2018-09-19T18:35:49.757Z,9.90
2018-09-19T18:38:17.738Z,10.40
2018-09-19T18:40:45.717Z,10.40
2018-09-19T18:43:13.646Z,9.97
2018-09-19T18:45:41.613Z,11.20
2018-09-19T18:48:10.003Z,9.50
2018-09-19T18:50:38.299Z,9.90
2018-09-19T18:53:06.272Z,10.30
2018-09-19T18:55:34.291Z,11.63
2018-09-19T18:58:02.283Z,12.03
2018-09-19T19:00:30.262Z,11.27
2018-09-19T19:02:58.288Z,12.57
2018-09-19T19:05:26.275Z,11.77
2018-09-19T19:07:54.279Z,11.37
2018-09-19T19:10:22.237Z,10.83
2018-09-19T19:12:50.190Z,10.20
2018-09-19T19:15:18.153Z,11.70
2018-09-19T19:17:46.099Z,11.17
2018-09-19T19:20:14.095Z,11.47
2018-09-19T19:22:42.072Z,11.40
2018-09-19T19:25:10.107Z,11.27
2018-09-19T19:27:38.090Z,12.23
2018-09-19T19:30:06.155Z,11.30
2018-09-19T19:32:34.067Z,10.83
2018-09-19T19:35:02.117Z,11.57
2018-09-19T19:37:30.133Z,11.73
2018-09-19T19:39:58.086Z,12.30
2018-09-19T19:42:27.549Z,11.93
2018-09-19T19:44:55.634Z,11.87
2018-09-19T19:47:23.751Z,12.07
2018-09-19T19:49:52.337Z,11.60
2018-09-19T19:52:20.348Z,12.63
2018-09-19T19:54:48.445Z,11.17
2018-09-19T19:57:16.434Z,13.03
2018-09-19T19:59:44.441Z,13.27
2018-09-19T20:02:12.445Z,12.90
2018-09-19T20:04:40.432Z,12.40
2018-09-19T20:07:08.399Z,11.80
2018-09-19T20:09:36.445Z,13.40
2018-09-19T20:12:04.391Z,13.40
2018-09-19T20:14:32.397Z,12.83
2018-09-19T20:17:00.429Z,12.40
2018-09-19T20:19:28.942Z,13.80
2018-09-19T20:21:56.936Z,13.10
2018-09-19T20:24:25.178Z,14.30
2018-09-19T20:26:53.230Z,13.10
2018-09-19T20:29:22.293Z,14.03
2018-09-19T20:31:50.487Z,13.43
2018-09-19T20:34:18.954Z,13.90
2018-09-19T20:36:46.974Z,13.30
2018-09-19T20:39:15.327Z,12.90
2018-09-19T20:41:43.315Z,12.37
2018-09-19T20:44:11.531Z,14.30
2018-09-19T20:46:39.853Z,13.07
2018-09-19T20:49:07.964Z,13.13
2018-09-19T20:51:36.149Z,13.90
2018-09-19T20:54:04.181Z,14.33
2018-09-19T20:56:32.725Z,13.63
2018-09-19T20:59:00.827Z,14.17
2018-09-19T21:01:28.842Z,13.73
2018-09-19T21:03:56.815Z,13.80
2018-09-19T21:06:25.217Z,13.13
2018-09-19T21:08:54.205Z,12.57
2018-09-19T21:11:22.227Z,13.40
2018-09-19T21:13:50.210Z,11.90
2018-09-19T21:16:18.484Z,10.60
2018-09-19T21:18:46.800Z,11.63
2018-09-19T21:21:15.098Z,10.20
2018-09-19T21:23:43.146Z,10.73
2018-09-19T21:26:11.656Z,9.80
2018-09-19T21:28:39.901Z,10.33
2018-09-19T21:31:07.866Z,9.70
2018-09-19T21:33:35.847Z,9.37
2018-09-19T21:36:03.829Z,10.10
2018-09-19T21:38:31.816Z,10.03
2018-09-19T21:40:59.778Z,9.43
2018-09-19T21:43:27.980Z,9.80
2018-09-19T21:45:55.999Z,9.93
2018-09-19T21:48:24.008Z,9.67
2018-09-19T21:50:52.047Z,8.23
2018-09-19T21:53:20.049Z,9.83
2018-09-19T21:55:48.054Z,9.80
2018-09-19T21:58:16.068Z,9.70
2018-09-19T22:00:49.257Z,9.10
